createdAt,value
2017-07-21T00:00:22.309Z,0
2017-07-21T00:01:22.314Z,0
2017-07-21T00:02:22.406Z,0
2017-07-21T00:03:22.309Z,0
2017-07-21T00:04:22.312Z,0
2017-07-21T00:05:22.397Z,0
2017-07-21T00:06:22.453Z,0
2017-07-21T00:07:22.148Z,0
2017-07-21T00:08:22.294Z,0
2017-07-21T00:09:22.403Z,0
2017-07-21T00:10:22.291Z,0
2017-07-21T00:11:22.297Z,0
2017-07-21T00:12:22.087Z,0
2017-07-21T00:13:22.290Z,0
2017-07-21T00:14:21.985Z,0
2017-07-21T00:15:22.284Z,0
2017-07-21T00:16:22.075Z,0
2017-07-21T00:17:22.285Z,0
2017-07-21T00:18:22.280Z,0
2017-07-21T00:19:22.278Z,0
2017-07-21T00:20:21.667Z,0
2017-07-21T00:21:22.384Z,0
2017-07-21T00:22:22.382Z,0
2017-07-21T00:23:22.369Z,0
2017-07-21T00:24:22.414Z,0
2017-07-21T00:25:22.268Z,0
2017-07-21T00:26:22.269Z,0
2017-07-21T00:27:22.262Z,0
2017-07-21T00:28:22.263Z,0
2017-07-21T00:29:22.263Z,0
2017-07-21T00:30:22.260Z,0
2017-07-21T00:31:22.262Z,0
2017-07-21T00:32:22.253Z,0
2017-07-21T00:33:22.261Z,0
2017-07-21T00:34:22.250Z,0
2017-07-21T00:35:22.244Z,0
2017-07-21T00:36:22.348Z,0
2017-07-21T00:37:22.277Z,0
2017-07-21T00:38:22.249Z,0
2017-07-21T00:39:22.434Z,0
2017-07-21T00:40:21.933Z,0
2017-07-21T00:41:22.240Z,0
2017-07-21T00:42:22.240Z,0
2017-07-21T00:43:22.235Z,0
2017-07-21T00:44:22.235Z,0
2017-07-21T00:45:22.233Z,0
2017-07-21T00:46:22.232Z,0
2017-07-21T00:47:22.227Z,0
2017-07-21T00:48:22.224Z,0
2017-07-21T00:49:21.918Z,0
2017-07-21T00:50:22.219Z,0
2017-07-21T00:51:22.257Z,0
2017-07-21T00:52:22.217Z,0
2017-07-21T00:53:22.219Z,0
2017-07-21T00:54:22.211Z,0
2017-07-21T00:55:22.211Z,0
2017-07-21T00:56:22.417Z,0
2017-07-21T00:57:22.206Z,0
2017-07-21T00:58:22.208Z,0
2017-07-21T00:59:22.313Z,0
2017-07-21T01:00:21.899Z,0
2017-07-21T01:01:21.897Z,0
2017-07-21T01:02:22.197Z,0
2017-07-21T01:03:22.296Z,0
2017-07-21T01:04:22.197Z,0
2017-07-21T01:05:21.884Z,0
2017-07-21T01:06:21.898Z,0
2017-07-21T01:07:22.189Z,0
2017-07-21T01:08:22.341Z,0
2017-07-21T01:09:22.190Z,0
2017-07-21T01:10:22.190Z,0
2017-07-21T01:11:21.881Z,0
2017-07-21T01:12:21.904Z,0
2017-07-21T01:13:22.185Z,0
2017-07-21T01:14:21.568Z,0
2017-07-21T01:15:21.871Z,0
2017-07-21T01:16:21.868Z,0
2017-07-21T01:17:22.170Z,0
2017-07-21T01:18:22.168Z,0
2017-07-21T01:19:22.167Z,0
2017-07-21T01:20:22.166Z,0
2017-07-21T01:21:21.962Z,0
2017-07-21T01:22:21.344Z,0
2017-07-21T01:23:22.156Z,0
2017-07-21T01:24:22.159Z,0
2017-07-21T01:25:22.004Z,0
2017-07-21T01:26:22.098Z,0
2017-07-21T01:27:21.852Z,0
2017-07-21T01:28:21.850Z,0
2017-07-21T01:29:22.148Z,0
2017-07-21T01:30:22.150Z,0
2017-07-21T01:31:22.144Z,0
2017-07-21T01:32:21.839Z,0
2017-07-21T01:33:22.134Z,0
2017-07-21T01:34:21.530Z,0
2017-07-21T01:35:21.833Z,0
2017-07-21T01:36:21.526Z,0
2017-07-21T01:37:21.829Z,0
2017-07-21T01:38:22.133Z,0
2017-07-21T01:39:22.127Z,0
2017-07-21T01:40:22.129Z,0
2017-07-21T01:41:22.130Z,0
2017-07-21T01:42:22.270Z,0
2017-07-21T01:43:22.122Z,0
2017-07-21T01:44:22.118Z,0
2017-07-21T01:45:21.817Z,0
2017-07-21T01:46:22.113Z,0
2017-07-21T01:47:22.211Z,0
2017-07-21T01:48:21.505Z,0
2017-07-21T01:49:22.112Z,0
2017-07-21T01:50:21.903Z,0
2017-07-21T01:51:21.905Z,0
2017-07-21T01:52:22.252Z,0
2017-07-21T01:53:22.105Z,0
2017-07-21T01:54:22.096Z,0
2017-07-21T01:55:22.129Z,0
2017-07-21T01:56:22.198Z,0
2017-07-21T01:57:21.794Z,0
2017-07-21T01:58:22.196Z,0
2017-07-21T01:59:21.885Z,0
2017-07-21T02:00:22.113Z,0
2017-07-21T02:01:21.474Z,0
2017-07-21T02:02:22.092Z,0
2017-07-21T02:03:22.239Z,0
2017-07-21T02:04:21.778Z,0
2017-07-21T02:05:22.087Z,0
2017-07-21T02:06:21.774Z,0
2017-07-21T02:07:21.769Z,0
2017-07-21T02:08:21.921Z,0
2017-07-21T02:09:22.234Z,0
2017-07-21T02:10:21.767Z,0
2017-07-21T02:11:22.071Z,0
2017-07-21T02:12:22.067Z,0
2017-07-21T02:13:22.065Z,0
2017-07-21T02:14:22.057Z,0
2017-07-21T02:15:22.058Z,0
2017-07-21T02:16:22.062Z,0
2017-07-21T02:17:22.065Z,0
2017-07-21T02:18:21.755Z,0
2017-07-21T02:19:22.054Z,0
2017-07-21T02:20:22.161Z,0
2017-07-21T02:21:21.746Z,0
2017-07-21T02:22:21.744Z,0
2017-07-21T02:23:22.149Z,0
2017-07-21T02:24:21.842Z,0
2017-07-21T02:25:22.044Z,0
2017-07-21T02:26:22.043Z,0
2017-07-21T02:27:21.429Z,0
2017-07-21T02:28:22.132Z,0
2017-07-21T02:29:22.032Z,0
2017-07-21T02:30:22.182Z,0
2017-07-21T02:31:21.730Z,0
2017-07-21T02:32:22.159Z,0
2017-07-21T02:33:22.142Z,0
2017-07-21T02:34:22.025Z,0
2017-07-21T02:35:21.409Z,0
2017-07-21T02:36:22.025Z,0
2017-07-21T02:37:21.714Z,0
2017-07-21T02:38:22.021Z,0
2017-07-21T02:39:22.113Z,0
2017-07-21T02:40:22.012Z,0
2017-07-21T02:41:22.012Z,0
2017-07-21T02:42:22.013Z,0
2017-07-21T02:43:22.009Z,0
2017-07-21T02:44:22.005Z,0
2017-07-21T02:45:21.400Z,0
2017-07-21T02:46:21.696Z,0
2017-07-21T02:47:21.996Z,0
2017-07-21T02:48:21.686Z,0
2017-07-21T02:49:21.996Z,0
2017-07-21T02:50:21.990Z,0
2017-07-21T02:51:21.693Z,0
2017-07-21T02:52:21.989Z,0
2017-07-21T02:53:21.782Z,0
2017-07-21T02:54:21.986Z,0
2017-07-21T02:55:21.678Z,0
2017-07-21T02:56:22.081Z,0
2017-07-21T02:57:21.674Z,0
2017-07-21T02:58:21.979Z,0
2017-07-21T02:59:21.666Z,0
2017-07-21T03:00:21.362Z,0
2017-07-21T03:01:21.667Z,0
2017-07-21T03:02:21.972Z,0
2017-07-21T03:03:21.668Z,0
2017-07-21T03:04:21.967Z,0
2017-07-21T03:05:21.968Z,0
2017-07-21T03:06:21.803Z,0
2017-07-21T03:07:21.963Z,0
2017-07-21T03:08:21.951Z,0
2017-07-21T03:09:21.683Z,0
2017-07-21T03:10:21.641Z,0
2017-07-21T03:11:21.956Z,0
2017-07-21T03:12:22.054Z,0
2017-07-21T03:13:21.950Z,0
2017-07-21T03:14:21.942Z,0
2017-07-21T03:15:21.955Z,0
2017-07-21T03:16:21.637Z,0
2017-07-21T03:17:21.941Z,0
2017-07-21T03:18:22.089Z,4
2017-07-21T03:19:21.646Z,4
2017-07-21T03:20:22.035Z,4
2017-07-21T03:21:21.623Z,4
2017-07-21T03:22:21.314Z,4
2017-07-21T03:23:21.928Z,4
2017-07-21T03:24:21.414Z,4
2017-07-21T03:25:21.312Z,8
2017-07-21T03:26:21.613Z,4
2017-07-21T03:27:21.306Z,8
2017-07-21T03:28:21.306Z,8
2017-07-21T03:29:21.621Z,8
2017-07-21T03:30:21.317Z,12
2017-07-21T03:31:21.610Z,16
2017-07-21T03:32:21.298Z,16
2017-07-21T03:33:21.911Z,20
2017-07-21T03:34:22.064Z,20
2017-07-21T03:35:22.050Z,24
2017-07-21T03:36:21.930Z,24
2017-07-21T03:37:21.597Z,32
2017-07-21T03:38:21.898Z,32
2017-07-21T03:39:21.898Z,36
2017-07-21T03:40:21.688Z,40
2017-07-21T03:41:21.913Z,44
2017-07-21T03:42:21.990Z,48
2017-07-21T03:43:21.986Z,52
2017-07-21T03:44:21.885Z,60
2017-07-21T03:45:21.680Z,68
2017-07-21T03:46:21.875Z,76
2017-07-21T03:47:21.881Z,80
2017-07-21T03:48:21.874Z,88
2017-07-21T03:49:21.874Z,96
2017-07-21T03:50:21.870Z,104
2017-07-21T03:51:21.871Z,120
2017-07-21T03:52:21.868Z,128
2017-07-21T03:53:21.864Z,136
2017-07-21T03:54:21.867Z,148
2017-07-21T03:55:21.857Z,164
2017-07-21T03:56:21.858Z,176
2017-07-21T03:57:21.547Z,184
2017-07-21T03:58:21.854Z,200
2017-07-21T03:59:21.550Z,212
2017-07-21T04:00:21.855Z,228
2017-07-21T04:01:21.851Z,236
2017-07-21T04:02:21.534Z,244
2017-07-21T04:03:21.845Z,264
2017-07-21T04:04:21.838Z,280
2017-07-21T04:05:21.843Z,296
2017-07-21T04:06:21.999Z,316
2017-07-21T04:07:21.635Z,336
2017-07-21T04:08:21.825Z,356
2017-07-21T04:09:21.829Z,376
2017-07-21T04:10:21.837Z,400
2017-07-21T04:11:21.826Z,428
2017-07-21T04:12:21.519Z,456
2017-07-21T04:13:21.832Z,484
2017-07-21T04:14:21.922Z,512
2017-07-21T04:15:21.822Z,540
2017-07-21T04:16:21.813Z,568
2017-07-21T04:17:21.820Z,596
2017-07-21T04:18:21.811Z,624
2017-07-21T04:19:21.914Z,656
2017-07-21T04:20:21.810Z,684
2017-07-21T04:21:21.808Z,712
2017-07-21T04:22:21.904Z,740
2017-07-21T04:23:21.802Z,776
2017-07-21T04:24:21.950Z,808
2017-07-21T04:25:21.894Z,844
2017-07-21T04:26:21.792Z,884
2017-07-21T04:27:21.796Z,924
2017-07-21T04:28:21.788Z,972
2017-07-21T04:29:21.481Z,1028
2017-07-21T04:30:21.503Z,1084
2017-07-21T04:31:21.779Z,1156
2017-07-21T04:32:21.780Z,1232
2017-07-21T04:33:21.783Z,1304
2017-07-21T04:34:21.804Z,1368
2017-07-21T04:35:21.925Z,1420
2017-07-21T04:36:22.022Z,1472
2017-07-21T04:37:21.773Z,1528
2017-07-21T04:38:21.768Z,1584
2017-07-21T04:39:21.770Z,1652
2017-07-21T04:40:21.467Z,1704
2017-07-21T04:41:21.458Z,1764
2017-07-21T04:42:21.763Z,1816
2017-07-21T04:43:21.761Z,1876
2017-07-21T04:44:21.855Z,1928
2017-07-21T04:45:21.754Z,1996
2017-07-21T04:46:21.751Z,2056
2017-07-21T04:47:21.755Z,2100
2017-07-21T04:48:21.754Z,2156
2017-07-21T04:49:21.751Z,2212
2017-07-21T04:50:21.539Z,2264
2017-07-21T04:51:21.752Z,2328
2017-07-21T04:52:21.543Z,2380
2017-07-21T04:53:21.842Z,2440
2017-07-21T04:54:21.748Z,2500
2017-07-21T04:55:21.743Z,2564
2017-07-21T04:56:21.740Z,2632
2017-07-21T04:57:21.530Z,2712
2017-07-21T04:58:21.578Z,2780
2017-07-21T04:59:21.737Z,2856
2017-07-21T05:00:21.430Z,2936
2017-07-21T05:01:21.831Z,3008
2017-07-21T05:02:21.116Z,3084
2017-07-21T05:03:21.828Z,3184
2017-07-21T05:04:21.731Z,3284
2017-07-21T05:05:21.723Z,3412
2017-07-21T05:06:21.415Z,3524
2017-07-21T05:07:21.727Z,3676
2017-07-21T05:08:21.876Z,3844
2017-07-21T05:09:21.722Z,4012
2017-07-21T05:10:21.719Z,4172
2017-07-21T05:11:21.719Z,4308
2017-07-21T05:12:21.715Z,4356
2017-07-21T05:13:21.717Z,4400
2017-07-21T05:14:21.715Z,4516
2017-07-21T05:15:21.714Z,4572
2017-07-21T05:16:21.724Z,4580
2017-07-21T05:17:21.712Z,4600
2017-07-21T05:18:21.805Z,4600
2017-07-21T05:19:21.711Z,4612
2017-07-21T05:20:21.707Z,4652
2017-07-21T05:21:21.430Z,4716
2017-07-21T05:22:21.398Z,4732
2017-07-21T05:23:21.703Z,4812
2017-07-21T05:24:21.704Z,4916
2017-07-21T05:25:21.551Z,5188
2017-07-21T05:26:21.704Z,5484
2017-07-21T05:27:21.390Z,5776
2017-07-21T05:28:21.701Z,6124
2017-07-21T05:29:21.895Z,6336
2017-07-21T05:30:21.698Z,6500
2017-07-21T05:31:21.495Z,6564
2017-07-21T05:32:21.809Z,6724
2017-07-21T05:33:21.392Z,7076
2017-07-21T05:34:21.700Z,7664
2017-07-21T05:35:21.697Z,8576
2017-07-21T05:36:21.703Z,9576
2017-07-21T05:37:21.390Z,11240
2017-07-21T05:38:21.699Z,12924
2017-07-21T05:39:21.697Z,13540
2017-07-21T05:40:21.389Z,13644
2017-07-21T05:41:21.386Z,12872
2017-07-21T05:42:21.386Z,13096
2017-07-21T05:43:21.802Z,13104
2017-07-21T05:44:21.697Z,13532
2017-07-21T05:45:21.698Z,13468
2017-07-21T05:46:21.693Z,13812
2017-07-21T05:47:21.336Z,15552
2017-07-21T05:48:21.492Z,15840
2017-07-21T05:49:21.695Z,15904
2017-07-21T05:50:21.391Z,16512
2017-07-21T05:51:21.704Z,17120
2017-07-21T05:52:21.387Z,16736
2017-07-21T05:53:21.705Z,17408
2017-07-21T05:54:21.853Z,17792
2017-07-21T05:55:21.703Z,17536
2017-07-21T05:56:21.701Z,18112
2017-07-21T05:57:21.091Z,18976
2017-07-21T05:58:21.808Z,18720
2017-07-21T05:59:21.705Z,19552
2017-07-21T06:00:21.706Z,20224
2017-07-21T06:01:21.707Z,20096
2017-07-21T06:02:21.401Z,20288
2017-07-21T06:03:21.568Z,19776
2017-07-21T06:04:21.725Z,20288
2017-07-21T06:05:21.866Z,21120
2017-07-21T06:06:21.724Z,20352
2017-07-21T06:07:21.718Z,21152
2017-07-21T06:08:21.822Z,21408
2017-07-21T06:09:21.714Z,21760
2017-07-21T06:10:21.414Z,21824
2017-07-21T06:11:21.728Z,21568
2017-07-21T06:12:21.826Z,22656
2017-07-21T06:13:21.733Z,22784
2017-07-21T06:14:21.828Z,23200
2017-07-21T06:15:21.728Z,24000
2017-07-21T06:16:21.734Z,24000
2017-07-21T06:17:21.850Z,24352
2017-07-21T06:18:21.741Z,24000
2017-07-21T06:19:21.739Z,23296
2017-07-21T06:20:21.745Z,24704
2017-07-21T06:21:21.744Z,24896
2017-07-21T06:22:21.749Z,24320
2017-07-21T06:23:21.851Z,25344
2017-07-21T06:24:21.766Z,24096
2017-07-21T06:25:21.752Z,24608
2017-07-21T06:26:21.759Z,24960
2017-07-21T06:27:21.768Z,26240
2017-07-21T06:28:21.868Z,26880
2017-07-21T06:29:21.773Z,27392
2017-07-21T06:30:21.869Z,26496
2017-07-21T06:31:21.773Z,26080
2017-07-21T06:32:21.788Z,26400
2017-07-21T06:33:21.779Z,26080
2017-07-21T06:34:21.786Z,26592
2017-07-21T06:35:21.908Z,27200
2017-07-21T06:36:21.490Z,27616
2017-07-21T06:37:21.798Z,28256
2017-07-21T06:38:21.493Z,28288
2017-07-21T06:39:21.816Z,26976
2017-07-21T06:40:21.502Z,27744
2017-07-21T06:41:21.812Z,27552
2017-07-21T06:42:21.828Z,27616
2017-07-21T06:43:21.510Z,27840
2017-07-21T06:44:21.827Z,28352
2017-07-21T06:45:21.521Z,27872
2017-07-21T06:46:21.828Z,28320
2017-07-21T06:47:21.832Z,28096
2017-07-21T06:48:21.832Z,28608
2017-07-21T06:49:21.841Z,30528
2017-07-21T06:50:21.539Z,29952
2017-07-21T06:51:21.942Z,28928
2017-07-21T06:52:21.866Z,30048
2017-07-21T06:53:21.552Z,29504
2017-07-21T06:54:21.858Z,29216
2017-07-21T06:55:21.859Z,29536
2017-07-21T06:56:22.013Z,29600
2017-07-21T06:57:21.904Z,29696
2017-07-21T06:58:21.875Z,30272
2017-07-21T06:59:21.874Z,31744
2017-07-21T07:00:21.877Z,30624
2017-07-21T07:01:21.881Z,30656
2017-07-21T07:02:21.884Z,31616
2017-07-21T07:03:21.891Z,31392
2017-07-21T07:04:21.893Z,30144
2017-07-21T07:05:21.900Z,29792
2017-07-21T07:06:21.911Z,30336
2017-07-21T07:07:21.904Z,30720
2017-07-21T07:08:21.622Z,32544
2017-07-21T07:09:21.635Z,32544
2017-07-21T07:10:22.026Z,32928
2017-07-21T07:11:21.308Z,32160
2017-07-21T07:12:21.926Z,31520
2017-07-21T07:13:21.932Z,32576
2017-07-21T07:14:21.730Z,30240
2017-07-21T07:15:21.944Z,30752
2017-07-21T07:16:21.642Z,30976
2017-07-21T07:17:21.644Z,30336
2017-07-21T07:18:21.943Z,30752
2017-07-21T07:19:21.957Z,29760
2017-07-21T07:20:21.951Z,29472
2017-07-21T07:21:21.957Z,29824
2017-07-21T07:22:21.961Z,30048
2017-07-21T07:23:21.971Z,31872
2017-07-21T07:24:21.668Z,31840
2017-07-21T07:25:21.671Z,31168
2017-07-21T07:26:21.981Z,30144
2017-07-21T07:27:21.984Z,31936
2017-07-21T07:28:21.381Z,31168
2017-07-21T07:29:21.988Z,30912
2017-07-21T07:30:22.086Z,31808
2017-07-21T07:31:21.990Z,31488
2017-07-21T07:32:21.847Z,31808
2017-07-21T07:33:21.700Z,30016
2017-07-21T07:34:22.000Z,27104
2017-07-21T07:35:22.006Z,24992
2017-07-21T07:36:21.851Z,23808
2017-07-21T07:37:21.702Z,27072
2017-07-21T07:38:21.802Z,27168
2017-07-21T07:39:21.707Z,25184
2017-07-21T07:40:21.813Z,23968
2017-07-21T07:41:22.169Z,17440
2017-07-21T07:42:21.719Z,11092
2017-07-21T07:43:22.023Z,9212
2017-07-21T07:44:22.022Z,8980
2017-07-21T07:45:22.146Z,8788
2017-07-21T07:46:22.038Z,8664
2017-07-21T07:47:22.034Z,8504
2017-07-21T07:48:22.036Z,8288
2017-07-21T07:49:22.038Z,8232
2017-07-21T07:50:22.049Z,8092
2017-07-21T07:51:22.052Z,8020
2017-07-21T07:52:22.049Z,7924
2017-07-21T07:53:22.052Z,7824
2017-07-21T07:54:22.064Z,7728
2017-07-21T07:55:22.152Z,7564
2017-07-21T07:56:22.059Z,7452
2017-07-21T07:57:22.049Z,7228
2017-07-21T07:58:22.165Z,7172
2017-07-21T07:59:22.062Z,7024
2017-07-21T08:00:21.753Z,6868
2017-07-21T08:01:22.167Z,6716
2017-07-21T08:02:22.074Z,6536
2017-07-21T08:03:21.765Z,6376
2017-07-21T08:04:22.074Z,6256
2017-07-21T08:05:22.066Z,6120
2017-07-21T08:06:22.174Z,6004
2017-07-21T08:07:22.081Z,5872
2017-07-21T08:08:22.076Z,5804
2017-07-21T08:09:22.086Z,5712
2017-07-21T08:10:22.088Z,5588
2017-07-21T08:11:22.087Z,5484
2017-07-21T08:12:22.082Z,5440
2017-07-21T08:13:22.089Z,5368
2017-07-21T08:14:21.888Z,5256
2017-07-21T08:15:22.091Z,5164
2017-07-21T08:16:22.192Z,5104
2017-07-21T08:17:21.936Z,5000
2017-07-21T08:18:22.094Z,4932
2017-07-21T08:19:21.895Z,4880
2017-07-21T08:20:22.091Z,4836
2017-07-21T08:21:21.799Z,4748
2017-07-21T08:22:22.102Z,4640
2017-07-21T08:23:22.106Z,4624
2017-07-21T08:24:22.098Z,4492
2017-07-21T08:25:22.100Z,4356
2017-07-21T08:26:21.608Z,4308
2017-07-21T08:27:22.203Z,4200
2017-07-21T08:28:22.113Z,4148
2017-07-21T08:29:22.267Z,4132
2017-07-21T08:30:22.117Z,4064
2017-07-21T08:31:22.105Z,4008
2017-07-21T08:32:21.805Z,3924
2017-07-21T08:33:22.219Z,3884
2017-07-21T08:34:22.264Z,3816
2017-07-21T08:35:22.110Z,3784
2017-07-21T08:36:22.115Z,3732
2017-07-21T08:37:21.806Z,3688
2017-07-21T08:38:22.117Z,3576
2017-07-21T08:39:22.125Z,3472
2017-07-21T08:40:22.263Z,3416
2017-07-21T08:41:22.127Z,3336
2017-07-21T08:42:22.117Z,3224
2017-07-21T08:43:22.124Z,3132
2017-07-21T08:44:22.130Z,3092
2017-07-21T08:45:22.224Z,3060
2017-07-21T08:46:22.024Z,3024
2017-07-21T08:47:22.120Z,2976
2017-07-21T08:48:21.818Z,2936
2017-07-21T08:49:21.816Z,2912
2017-07-21T08:50:22.120Z,2880
2017-07-21T08:51:22.133Z,2856
2017-07-21T08:52:22.127Z,2856
2017-07-21T08:53:22.127Z,2828
2017-07-21T08:54:22.334Z,2772
2017-07-21T08:55:21.827Z,2736
2017-07-21T08:56:22.125Z,2704
2017-07-21T08:57:22.125Z,2704
2017-07-21T08:58:22.126Z,2716
2017-07-21T08:59:22.128Z,2712
2017-07-21T09:00:21.827Z,2728
2017-07-21T09:01:21.824Z,2740
2017-07-21T09:02:22.125Z,2740
2017-07-21T09:03:22.130Z,2728
2017-07-21T09:04:22.136Z,2744
2017-07-21T09:05:21.824Z,2752
2017-07-21T09:06:22.129Z,2764
2017-07-21T09:07:21.828Z,2784
2017-07-21T09:08:22.132Z,2788
2017-07-21T09:09:21.831Z,2812
2017-07-21T09:10:21.827Z,2804
2017-07-21T09:11:22.282Z,2836
2017-07-21T09:12:22.238Z,2880
2017-07-21T09:13:22.135Z,2920
2017-07-21T09:14:22.131Z,2932
2017-07-21T09:15:22.138Z,2948
2017-07-21T09:16:21.924Z,2976
2017-07-21T09:17:21.823Z,3024
2017-07-21T09:18:22.131Z,3012
2017-07-21T09:19:21.824Z,2952
2017-07-21T09:20:22.133Z,2880
2017-07-21T09:21:21.829Z,2904
2017-07-21T09:22:21.985Z,2940
2017-07-21T09:23:22.138Z,3008
2017-07-21T09:24:22.138Z,3040
2017-07-21T09:25:22.142Z,3160
2017-07-21T09:26:21.827Z,3316
2017-07-21T09:27:21.928Z,3168
2017-07-21T09:28:22.134Z,3052
2017-07-21T09:29:22.240Z,3028
2017-07-21T09:30:22.139Z,2980
2017-07-21T09:31:21.826Z,2856
2017-07-21T09:32:21.832Z,2800
2017-07-21T09:33:22.241Z,2852
2017-07-21T09:34:22.141Z,2980
2017-07-21T09:35:21.841Z,3060
2017-07-21T09:36:22.133Z,2816
2017-07-21T09:37:21.833Z,2656
2017-07-21T09:38:22.137Z,2572
2017-07-21T09:39:22.143Z,2572
2017-07-21T09:40:21.831Z,2540
2017-07-21T09:41:22.140Z,2472
2017-07-21T09:42:22.134Z,2460
2017-07-21T09:43:21.830Z,2432
2017-07-21T09:44:21.936Z,2432
2017-07-21T09:45:22.288Z,2444
2017-07-21T09:46:22.136Z,2464
2017-07-21T09:47:22.142Z,2452
2017-07-21T09:48:21.523Z,2444
2017-07-21T09:49:21.834Z,2412
2017-07-21T09:50:21.979Z,2404
2017-07-21T09:51:22.138Z,2392
2017-07-21T09:52:21.536Z,2380
2017-07-21T09:53:22.136Z,2328
2017-07-21T09:54:22.297Z,2304
2017-07-21T09:55:22.143Z,2288
2017-07-21T09:56:22.237Z,2288
2017-07-21T09:57:21.836Z,2320
2017-07-21T09:58:21.836Z,2336
2017-07-21T09:59:22.140Z,2348
2017-07-21T10:00:22.142Z,2368
2017-07-21T10:01:22.135Z,2380
2017-07-21T10:02:21.831Z,2380
2017-07-21T10:03:22.239Z,2340
2017-07-21T10:04:22.145Z,2328
2017-07-21T10:05:22.138Z,2300
2017-07-21T10:06:22.139Z,2268
2017-07-21T10:07:21.934Z,2256
2017-07-21T10:08:22.131Z,2244
2017-07-21T10:09:22.146Z,2256
2017-07-21T10:10:21.983Z,2232
2017-07-21T10:11:22.133Z,2212
2017-07-21T10:12:22.141Z,2240
2017-07-21T10:13:22.140Z,2236
2017-07-21T10:14:22.139Z,2212
2017-07-21T10:15:22.248Z,2172
2017-07-21T10:16:21.833Z,2144
2017-07-21T10:17:21.833Z,2128
2017-07-21T10:18:22.140Z,2100
2017-07-21T10:19:22.134Z,2076
2017-07-21T10:20:21.832Z,2040
2017-07-21T10:21:22.145Z,2036
2017-07-21T10:22:22.135Z,2044
2017-07-21T10:23:22.141Z,2032
2017-07-21T10:24:22.140Z,2024
2017-07-21T10:25:21.937Z,2020
2017-07-21T10:26:21.831Z,2020
2017-07-21T10:27:21.837Z,1992
2017-07-21T10:28:22.142Z,1976
2017-07-21T10:29:22.138Z,1956
2017-07-21T10:30:22.141Z,1948
2017-07-21T10:31:22.139Z,1932
2017-07-21T10:32:21.929Z,1920
2017-07-21T10:33:21.829Z,1912
2017-07-21T10:34:21.832Z,1916
2017-07-21T10:35:22.170Z,1924
2017-07-21T10:36:22.139Z,1908
2017-07-21T10:37:21.982Z,1908
2017-07-21T10:38:21.827Z,1896
2017-07-21T10:39:22.145Z,1896
2017-07-21T10:40:22.156Z,1892
2017-07-21T10:41:21.833Z,1896
2017-07-21T10:42:22.237Z,1880
2017-07-21T10:43:22.133Z,1880
2017-07-21T10:44:21.932Z,1876
2017-07-21T10:45:21.834Z,1864
2017-07-21T10:46:22.139Z,1872
2017-07-21T10:47:22.241Z,1864
2017-07-21T10:48:22.132Z,1860
2017-07-21T10:49:22.138Z,1864
2017-07-21T10:50:21.941Z,1860
2017-07-21T10:51:22.237Z,1856
2017-07-21T10:52:22.136Z,1852
2017-07-21T10:53:21.836Z,1848
2017-07-21T10:54:21.834Z,1844
2017-07-21T10:55:21.934Z,1844
2017-07-21T10:56:22.135Z,1852
2017-07-21T10:57:22.240Z,1844
2017-07-21T10:58:21.834Z,1852
2017-07-21T10:59:22.139Z,1844
2017-07-21T11:00:22.230Z,1848
2017-07-21T11:01:22.136Z,1836
2017-07-21T11:02:21.828Z,1844
2017-07-21T11:03:21.830Z,1840
2017-07-21T11:04:22.136Z,1832
2017-07-21T11:05:22.153Z,1836
2017-07-21T11:06:21.835Z,1844
2017-07-21T11:07:21.556Z,1852
2017-07-21T11:08:21.831Z,1840
2017-07-21T11:09:22.139Z,1836
2017-07-21T11:10:22.141Z,1824
2017-07-21T11:11:22.231Z,1816
2017-07-21T11:12:22.142Z,1820
2017-07-21T11:13:22.151Z,1804
2017-07-21T11:14:22.137Z,1796
2017-07-21T11:15:22.235Z,1800
2017-07-21T11:16:22.136Z,1800
2017-07-21T11:17:22.156Z,1804
2017-07-21T11:18:21.829Z,1780
2017-07-21T11:19:22.132Z,1756
2017-07-21T11:20:21.830Z,1736
2017-07-21T11:21:22.125Z,1760
2017-07-21T11:22:22.128Z,1764
2017-07-21T11:23:22.134Z,1768
2017-07-21T11:24:22.133Z,1780
2017-07-21T11:25:22.138Z,1820
2017-07-21T11:26:22.133Z,1844
2017-07-21T11:27:22.235Z,1908
2017-07-21T11:28:22.138Z,1944
2017-07-21T11:29:21.828Z,1944
2017-07-21T11:30:22.136Z,1884
2017-07-21T11:31:22.130Z,1880
2017-07-21T11:32:22.127Z,1904
2017-07-21T11:33:22.133Z,1952
2017-07-21T11:34:21.523Z,1968
2017-07-21T11:35:21.217Z,1960
2017-07-21T11:36:22.146Z,2000
2017-07-21T11:37:22.235Z,2036
2017-07-21T11:38:22.133Z,2072
2017-07-21T11:39:22.128Z,2076
2017-07-21T11:40:22.133Z,2132
2017-07-21T11:41:21.824Z,2204
2017-07-21T11:42:22.128Z,2220
2017-07-21T11:43:21.828Z,2296
2017-07-21T11:44:22.131Z,2332
2017-07-21T11:45:22.125Z,2404
2017-07-21T11:46:21.213Z,2504
2017-07-21T11:47:22.232Z,2592
2017-07-21T11:48:22.134Z,2632
2017-07-21T11:49:21.829Z,2608
2017-07-21T11:50:21.832Z,2612
2017-07-21T11:51:21.821Z,2560
2017-07-21T11:52:21.825Z,2544
2017-07-21T11:53:21.824Z,2484
2017-07-21T11:54:22.131Z,2520
2017-07-21T11:55:21.983Z,2548
2017-07-21T11:56:22.132Z,2556
2017-07-21T11:57:21.831Z,2604
2017-07-21T11:58:21.923Z,2668
2017-07-21T11:59:21.824Z,2764
2017-07-21T12:00:22.228Z,2860
2017-07-21T12:01:21.837Z,2992
2017-07-21T12:02:22.130Z,3044
2017-07-21T12:03:22.129Z,3052
2017-07-21T12:04:22.134Z,3076
2017-07-21T12:05:22.123Z,3008
2017-07-21T12:06:22.225Z,2984
2017-07-21T12:07:22.138Z,2976
2017-07-21T12:08:22.219Z,2924
2017-07-21T12:09:22.120Z,2852
2017-07-21T12:10:22.124Z,2960
2017-07-21T12:11:21.816Z,3052
2017-07-21T12:12:22.126Z,3096
2017-07-21T12:13:22.128Z,3176
2017-07-21T12:14:22.129Z,3160
2017-07-21T12:15:22.121Z,3196
2017-07-21T12:16:22.122Z,3392
2017-07-21T12:17:22.278Z,3516
2017-07-21T12:18:21.516Z,3408
2017-07-21T12:19:21.820Z,3428
2017-07-21T12:20:21.613Z,3336
2017-07-21T12:21:22.128Z,3256
2017-07-21T12:22:22.123Z,3192
2017-07-21T12:23:22.139Z,3172
2017-07-21T12:24:21.819Z,3152
2017-07-21T12:25:22.126Z,3120
2017-07-21T12:26:22.129Z,3092
2017-07-21T12:27:22.121Z,3052
2017-07-21T12:28:22.223Z,3060
2017-07-21T12:29:21.509Z,3056
2017-07-21T12:30:22.126Z,3040
2017-07-21T12:31:22.128Z,3148
2017-07-21T12:32:22.124Z,3292
2017-07-21T12:33:22.125Z,3484
2017-07-21T12:34:21.970Z,3720
2017-07-21T12:35:21.817Z,3956
2017-07-21T12:36:22.123Z,4052
2017-07-21T12:37:22.134Z,4152
2017-07-21T12:38:22.129Z,4176
2017-07-21T12:39:22.133Z,4040
2017-07-21T12:40:21.517Z,3820
2017-07-21T12:41:22.129Z,3608
2017-07-21T12:42:22.127Z,3456
2017-07-21T12:43:21.824Z,3260
2017-07-21T12:44:21.820Z,3196
2017-07-21T12:45:21.525Z,3148
2017-07-21T12:46:22.125Z,3104
2017-07-21T12:47:21.518Z,2956
2017-07-21T12:48:22.233Z,2920
2017-07-21T12:49:21.823Z,2904
2017-07-21T12:50:22.137Z,2820
2017-07-21T12:51:21.825Z,2708
2017-07-21T12:52:21.826Z,2660
2017-07-21T12:53:21.829Z,2580
2017-07-21T12:54:21.925Z,2604
2017-07-21T12:55:22.239Z,2652
2017-07-21T12:56:21.521Z,2688
2017-07-21T12:57:21.517Z,2760
2017-07-21T12:58:21.521Z,2788
2017-07-21T12:59:21.364Z,2920
2017-07-21T13:00:21.825Z,2996
2017-07-21T13:01:21.519Z,2960
2017-07-21T13:02:22.131Z,2896
2017-07-21T13:03:22.135Z,2788
2017-07-21T13:04:22.136Z,2676
2017-07-21T13:05:21.836Z,2640
2017-07-21T13:06:22.127Z,2608
2017-07-21T13:07:22.134Z,2596
2017-07-21T13:08:21.829Z,2580
2017-07-21T13:09:22.287Z,2556
2017-07-21T13:10:21.523Z,2548
2017-07-21T13:11:21.842Z,2508
2017-07-21T13:12:22.138Z,2480
2017-07-21T13:13:21.331Z,2412
2017-07-21T13:14:21.832Z,2380
2017-07-21T13:15:21.928Z,2344
2017-07-21T13:16:22.241Z,2376
2017-07-21T13:17:21.557Z,2420
2017-07-21T13:18:22.239Z,2488
2017-07-21T13:19:21.830Z,2556
2017-07-21T13:20:21.834Z,2592
2017-07-21T13:21:21.530Z,2608
2017-07-21T13:22:22.136Z,2552
2017-07-21T13:23:22.139Z,2512
2017-07-21T13:24:22.139Z,2500
2017-07-21T13:25:22.248Z,2448
2017-07-21T13:26:22.297Z,2424
2017-07-21T13:27:21.848Z,2396
2017-07-21T13:28:22.141Z,2408
2017-07-21T13:29:21.831Z,2372
2017-07-21T13:30:22.148Z,2408
2017-07-21T13:31:22.304Z,2356
2017-07-21T13:32:22.146Z,2332
2017-07-21T13:33:21.837Z,2308
2017-07-21T13:34:21.845Z,2244
2017-07-21T13:35:22.237Z,2172
2017-07-21T13:36:22.301Z,2104
2017-07-21T13:37:21.838Z,2036